createdAt,value
2019-02-22T00:00:08.597Z,98851.64
2019-02-22T00:02:40.272Z,98847.32
2019-02-22T00:05:10.079Z,98846.14
2019-02-22T00:07:40.914Z,98847.08
2019-02-22T00:10:11.001Z,98841.50
2019-02-22T00:12:41.355Z,98840.88
2019-02-22T00:15:12.644Z,98837.84
2019-02-22T00:17:43.841Z,98837.30
2019-02-22T00:20:15.214Z,98837.45
2019-02-22T00:22:45.110Z,98836.70
2019-02-22T00:25:15.531Z,98828.61
2019-02-22T00:27:46.104Z,98828.22
2019-02-22T00:30:17.477Z,98826.25
2019-02-22T00:32:47.919Z,98826.48
2019-02-22T00:35:19.451Z,98819.87
2019-02-22T00:37:49.250Z,98826.56
2019-02-22T00:40:22.510Z,98830.69
2019-02-22T00:42:52.247Z,98831.88
2019-02-22T00:45:23.028Z,98837.56
2019-02-22T00:47:54.453Z,98841.42
2019-02-22T00:50:25.240Z,98842.61
2019-02-22T00:52:58.369Z,98840.17
2019-02-22T00:55:28.842Z,98837.22
2019-02-22T00:57:58.839Z,98830.38
2019-02-22T01:00:30.195Z,98827.23
2019-02-22T01:03:00.566Z,98831.56
2019-02-22T01:05:30.286Z,98833.56
2019-02-22T01:07:59.963Z,98835.95
2019-02-22T01:10:31.637Z,98834.63
2019-02-22T01:13:02.447Z,98834.19
2019-02-22T01:15:33.232Z,98833.64
2019-02-22T01:18:02.067Z,98838.75
2019-02-22T01:20:33.423Z,98831.05
2019-02-22T01:23:04.177Z,98821.34
2019-02-22T01:25:35.558Z,98805.48
2019-02-22T01:28:06.318Z,98805.48
2019-02-22T01:30:36.750Z,98812.83
2019-02-22T01:33:08.521Z,98810.51
2019-02-22T01:35:39.124Z,98805.36
2019-02-22T01:38:08.794Z,98814.76
2019-02-22T01:40:43.582Z,98817.87
2019-02-22T01:43:11.459Z,98816.38
2019-02-22T01:45:41.453Z,98812.08
2019-02-22T01:48:11.071Z,98811.88
2019-02-22T01:50:42.414Z,98815.45
2019-02-22T01:53:12.270Z,98821.52
2019-02-22T01:55:42.740Z,98815.89
2019-02-22T01:58:16.019Z,98821.53
2019-02-22T02:00:46.630Z,98816.59
2019-02-22T02:03:16.446Z,98824.56
2019-02-22T02:05:46.357Z,98820.04
2019-02-22T02:08:17.674Z,98823.48
2019-02-22T02:10:54.175Z,98825.05
2019-02-22T02:13:21.140Z,98826.06
2019-02-22T02:15:49.421Z,98819.63
2019-02-22T02:18:18.467Z,98823.08
2019-02-22T02:20:49.301Z,98817.17
2019-02-22T02:23:19.645Z,98821.58
2019-02-22T02:25:54.417Z,98823.32
2019-02-22T02:28:26.538Z,98825.20
2019-02-22T02:30:57.911Z,98821.81
2019-02-22T02:33:29.327Z,98820.33
2019-02-22T02:35:59.891Z,98823.27
2019-02-22T02:38:31.270Z,98831.27
2019-02-22T02:41:10.013Z,98830.77
2019-02-22T02:43:35.121Z,98826.40
2019-02-22T02:46:12.749Z,98827.83
2019-02-22T02:48:43.167Z,98825.84
2019-02-22T02:51:12.722Z,98831.45
2019-02-22T02:53:44.874Z,98830.45
2019-02-22T02:56:16.079Z,98821.25
2019-02-22T02:58:47.326Z,98825.39
2019-02-22T03:01:18.121Z,98826.45
2019-02-22T03:03:48.883Z,98824.97
2019-02-22T03:06:27.277Z,98833.59
2019-02-22T03:08:57.940Z,98825.00
2019-02-22T03:11:27.552Z,98834.19
2019-02-22T03:13:58.421Z,98836.34
2019-02-22T03:16:28.032Z,98828.90
2019-02-22T03:18:57.911Z,98831.94
2019-02-22T03:21:28.295Z,98833.08
2019-02-22T03:23:58.997Z,98832.57
2019-02-22T03:26:30.291Z,98834.44
2019-02-22T03:28:59.998Z,98835.16
2019-02-22T03:31:30.393Z,98845.25
2019-02-22T03:34:00.139Z,98842.81
2019-02-22T03:36:29.794Z,98847.69
2019-02-22T03:39:01.043Z,98848.32
2019-02-22T03:41:33.533Z,98840.30
2019-02-22T03:44:11.093Z,98830.98
2019-02-22T03:46:42.346Z,98835.94
2019-02-22T03:49:13.762Z,98828.86
2019-02-22T03:51:42.871Z,98834.27
2019-02-22T03:54:13.156Z,98833.88
2019-02-22T03:56:46.454Z,98843.63
2019-02-22T03:59:16.862Z,98846.73
2019-02-22T04:01:48.785Z,98849.48
2019-02-22T04:04:25.554Z,98845.55
2019-02-22T04:06:56.005Z,98853.69
2019-02-22T04:09:26.401Z,98849.52
2019-02-22T04:11:58.470Z,98849.16
2019-02-22T04:14:28.903Z,98859.16
2019-02-22T04:17:00.336Z,98855.66
2019-02-22T04:19:32.626Z,98856.83
2019-02-22T04:22:02.477Z,98860.13
2019-02-22T04:24:33.089Z,98864.66
2019-02-22T04:27:02.696Z,98860.33
2019-02-22T04:29:33.953Z,98858.14
2019-02-22T04:32:05.263Z,98856.67
2019-02-22T04:34:35.862Z,98851.13
2019-02-22T04:37:07.188Z,98852.19
2019-02-22T04:39:38.467Z,98849.09
2019-02-22T04:42:09.112Z,98850.70
2019-02-22T04:44:38.672Z,98857.23
2019-02-22T04:47:09.459Z,98848.62
2019-02-22T04:49:40.048Z,98852.51
2019-02-22T04:52:12.945Z,98858.41
2019-02-22T04:54:42.937Z,98862.02
2019-02-22T04:57:14.231Z,98864.42
2019-02-22T04:59:47.313Z,98866.86
2019-02-22T05:02:18.639Z,98876.41
2019-02-22T05:04:52.157Z,98878.38
2019-02-22T05:07:23.471Z,98875.00
2019-02-22T05:09:55.138Z,98883.72
2019-02-22T05:12:24.965Z,98886.67
2019-02-22T05:14:53.551Z,98890.48
2019-02-22T05:17:24.979Z,98893.36
2019-02-22T05:19:54.644Z,98891.91
2019-02-22T05:22:24.697Z,98891.00
2019-02-22T05:24:56.018Z,98894.69
2019-02-22T05:27:26.449Z,98889.86
2019-02-22T05:29:57.773Z,98897.52
2019-02-22T05:32:28.657Z,98902.59
2019-02-22T05:34:58.680Z,98901.26
2019-02-22T05:37:29.936Z,98903.82
2019-02-22T05:39:59.747Z,98902.64
2019-02-22T05:42:30.223Z,98908.27
2019-02-22T05:45:01.029Z,98902.40
2019-02-22T05:47:33.395Z,98909.28
2019-02-22T05:50:08.486Z,98904.88
2019-02-22T05:52:38.816Z,98911.48
2019-02-22T05:55:10.695Z,98913.30
2019-02-22T05:57:41.999Z,98915.53
2019-02-22T06:00:12.762Z,98910.34
2019-02-22T06:02:44.914Z,98916.67
2019-02-22T06:05:15.583Z,98926.82
2019-02-22T06:07:48.919Z,98934.69
2019-02-22T06:10:18.019Z,98938.16
2019-02-22T06:12:47.649Z,98945.50
2019-02-22T06:15:16.162Z,98944.25
2019-02-22T06:17:47.327Z,98955.86
2019-02-22T06:20:17.951Z,98957.75
2019-02-22T06:22:48.109Z,98972.02
2019-02-22T06:25:17.804Z,98968.60
2019-02-22T06:27:48.199Z,98977.61
2019-02-22T06:30:20.499Z,98977.92
2019-02-22T06:32:50.549Z,98985.23
2019-02-22T06:35:19.583Z,98983.86
2019-02-22T06:37:50.959Z,98988.86
2019-02-22T06:40:20.632Z,98984.61
2019-02-22T06:42:49.734Z,98986.73
2019-02-22T06:45:18.283Z,98986.15
2019-02-22T06:47:46.593Z,98990.59
2019-02-22T06:50:16.365Z,98993.70
2019-02-22T06:52:46.733Z,98997.88
2019-02-22T06:55:20.270Z,99001.84
2019-02-22T06:57:51.534Z,99007.00
2019-02-22T07:00:20.575Z,99008.63
2019-02-22T07:02:49.668Z,99006.49
2019-02-22T07:05:20.018Z,99013.38
2019-02-22T07:07:51.380Z,99016.88
2019-02-22T07:10:23.342Z,99021.48
2019-02-22T07:12:59.183Z,99022.04
2019-02-22T07:15:30.369Z,99023.30
2019-02-22T07:18:00.244Z,99030.58
2019-02-22T07:20:30.627Z,99032.15
2019-02-22T07:22:59.154Z,99036.84
2019-02-22T07:25:28.221Z,99038.30
2019-02-22T07:27:57.316Z,99041.01
2019-02-22T07:30:28.659Z,99043.41
2019-02-22T07:32:59.095Z,99047.78
2019-02-22T07:35:29.020Z,99025.25
2019-02-22T07:37:59.822Z,99024.46
2019-02-22T07:40:29.632Z,99049.02
2019-02-22T07:43:07.730Z,99057.39
2019-02-22T07:45:34.641Z,99061.23
2019-02-22T07:50:41.585Z,99076.91
2019-02-22T07:53:12.474Z,99076.59
2019-02-22T07:55:43.600Z,99082.67
2019-02-22T07:58:13.969Z,99083.80
2019-02-22T08:00:43.760Z,99092.59
2019-02-22T08:03:17.380Z,99105.42
2019-02-22T08:05:46.486Z,99097.61
2019-02-22T08:08:15.183Z,99098.22
2019-02-22T08:10:43.447Z,99097.30
2019-02-22T08:13:19.792Z,99098.17
2019-02-22T08:15:48.619Z,99103.19
2019-02-22T08:18:21.592Z,99110.36
2019-02-22T08:20:52.032Z,99113.04
2019-02-22T08:23:23.446Z,99110.58
2019-02-22T08:25:54.256Z,99118.49
2019-02-22T08:28:23.248Z,99111.20
2019-02-22T08:30:54.640Z,99112.86
2019-02-22T08:33:24.292Z,99104.32
2019-02-22T08:35:56.201Z,99098.44
2019-02-22T08:38:27.568Z,99104.75
2019-02-22T08:40:57.194Z,99112.23
2019-02-22T08:43:31.454Z,99124.34
2019-02-22T08:46:00.590Z,99124.61
2019-02-22T08:48:31.892Z,99128.30
2019-02-22T08:53:37.682Z,99128.61
2019-02-22T08:56:14.255Z,99131.77
2019-02-22T08:58:44.842Z,99133.72
2019-02-22T09:03:51.096Z,99135.49
2019-02-22T09:06:22.703Z,99137.61
2019-02-22T09:08:52.688Z,99149.31
2019-02-22T09:11:23.116Z,99144.95
2019-02-22T09:13:52.174Z,99151.63
2019-02-22T09:16:21.287Z,99148.42
2019-02-22T09:18:52.695Z,99153.47
2019-02-22T09:23:58.767Z,99159.66
2019-02-22T09:26:28.415Z,99158.83
2019-02-22T09:28:59.834Z,99168.89
2019-02-22T09:31:30.497Z,99166.49
2019-02-22T09:36:36.495Z,99167.66
2019-02-22T09:39:07.603Z,99164.98
2019-02-22T09:41:37.497Z,99168.36
2019-02-22T09:44:08.883Z,99162.13
2019-02-22T09:46:42.228Z,99175.41
2019-02-22T09:49:12.230Z,99179.23
2019-02-22T09:54:17.387Z,99192.36
2019-02-22T09:56:50.939Z,99203.30
2019-02-22T09:59:21.557Z,99214.50
2019-02-22T10:01:53.022Z,99216.02
2019-02-22T10:04:23.891Z,99219.25
2019-02-22T10:06:54.740Z,99209.95
2019-02-22T10:09:23.814Z,99213.55
2019-02-22T10:11:52.879Z,99214.99
2019-02-22T10:14:23.598Z,99210.05
2019-02-22T10:16:54.256Z,99224.58
2019-02-22T10:19:25.599Z,99223.47
2019-02-22T10:21:57.637Z,99231.53
2019-02-22T10:24:27.445Z,99229.09
2019-02-22T10:26:57.477Z,99235.30
2019-02-22T10:29:30.670Z,99233.02
2019-02-22T10:32:01.557Z,99232.75
2019-02-22T10:34:33.870Z,99236.52
2019-02-22T10:39:39.379Z,99231.27
2019-02-22T10:42:14.444Z,99237.73
2019-02-22T10:44:45.775Z,99237.73
2019-02-22T10:47:17.065Z,99241.63
2019-02-22T10:49:48.430Z,99240.12
2019-02-22T10:52:20.371Z,99246.23
2019-02-22T10:54:50.662Z,99235.09
2019-02-22T10:57:21.464Z,99249.88
2019-02-22T10:59:51.135Z,99250.88
2019-02-22T11:02:26.417Z,99248.75
2019-02-22T11:04:56.268Z,99250.81
2019-02-22T11:07:26.287Z,99256.23
2019-02-22T11:09:56.699Z,99245.94
2019-02-22T11:12:28.113Z,99251.24
2019-02-22T11:14:59.341Z,99252.38
2019-02-22T11:17:30.771Z,99259.63
2019-02-22T11:20:01.149Z,99264.75
2019-02-22T11:22:31.453Z,99269.34
2019-02-22T11:25:00.525Z,99274.52
2019-02-22T11:27:31.144Z,99275.41
2019-02-22T11:30:02.479Z,99275.80
2019-02-22T11:32:35.787Z,99270.98
2019-02-22T11:35:05.645Z,99285.44
2019-02-22T11:37:36.270Z,99282.25
2019-02-22T11:40:08.517Z,99279.26
2019-02-22T11:42:39.165Z,99285.44
2019-02-22T11:45:10.724Z,99289.17
2019-02-22T11:47:43.714Z,99284.81
2019-02-22T11:50:17.497Z,99287.75
2019-02-22T11:52:48.371Z,99290.03
2019-02-22T11:55:26.958Z,99285.66
2019-02-22T11:58:00.205Z,99285.86
2019-02-22T12:00:33.233Z,99289.55
2019-02-22T12:05:39.700Z,99300.14
2019-02-22T12:10:45.485Z,99296.88
2019-02-22T12:15:49.190Z,99307.52
2019-02-22T12:18:21.159Z,99304.20
2019-02-22T12:20:51.257Z,99302.67
2019-02-22T12:23:22.706Z,99307.09
2019-02-22T12:25:52.318Z,99308.88
2019-02-22T12:28:22.177Z,99307.27
2019-02-22T12:30:51.023Z,99308.63
2019-02-22T12:33:21.093Z,99321.77
2019-02-22T12:35:52.463Z,99307.74
2019-02-22T12:38:23.852Z,99322.94
2019-02-22T12:40:54.239Z,99322.94
2019-02-22T12:43:24.673Z,99325.72
2019-02-22T12:45:55.461Z,99327.42
2019-02-22T12:48:29.409Z,99324.62
2019-02-22T12:50:59.277Z,99327.78
2019-02-22T12:53:29.138Z,99324.48
2019-02-22T12:55:58.174Z,99337.13
2019-02-22T12:58:28.619Z,99326.89
2019-02-22T13:00:58.242Z,99330.48
2019-02-22T13:03:28.587Z,99329.36
2019-02-22T13:06:01.263Z,99332.67
2019-02-22T13:08:32.121Z,99341.25
2019-02-22T13:11:01.959Z,99339.88
2019-02-22T13:13:33.325Z,99332.36
2019-02-22T13:18:38.276Z,99344.77
2019-02-22T13:21:07.570Z,99347.55
2019-02-22T13:23:38.159Z,99352.83
2019-02-22T13:26:08.496Z,99355.80
2019-02-22T13:28:38.990Z,99355.00
2019-02-22T13:31:10.032Z,99364.42
2019-02-22T13:33:42.957Z,99368.81
2019-02-22T13:36:14.286Z,99375.64
2019-02-22T13:38:47.597Z,99376.18
2019-02-22T13:41:18.163Z,99367.00
2019-02-22T13:43:48.609Z,99375.39
2019-02-22T13:46:19.391Z,99376.87
2019-02-22T13:48:50.394Z,99372.76
2019-02-22T13:51:22.450Z,99373.69
2019-02-22T13:53:54.666Z,99384.55
2019-02-22T13:56:29.880Z,99389.72
2019-02-22T13:58:58.760Z,99397.52
2019-02-22T14:01:28.436Z,99398.96
2019-02-22T14:03:57.753Z,99399.91
2019-02-22T14:06:28.744Z,99398.89
2019-02-22T14:08:59.606Z,99396.78
2019-02-22T14:11:30.355Z,99403.65
2019-02-22T14:13:59.975Z,99407.59
2019-02-22T14:16:29.033Z,99411.38
2019-02-22T14:19:00.399Z,99412.11
2019-02-22T14:21:31.150Z,99416.27
2019-02-22T14:24:02.417Z,99424.12
2019-02-22T14:26:32.801Z,99413.91
2019-02-22T14:31:38.960Z,99415.98
2019-02-22T14:34:15.155Z,99418.20
2019-02-22T14:36:44.969Z,99425.69
2019-02-22T14:39:16.205Z,99423.23
2019-02-22T14:41:47.406Z,99425.35
2019-02-22T14:44:17.253Z,99433.68
2019-02-22T14:46:47.598Z,99430.22
2019-02-22T14:49:17.441Z,99429.16
2019-02-22T14:51:47.265Z,99426.77
2019-02-22T14:54:17.652Z,99435.26
2019-02-22T14:56:48.059Z,99426.80
2019-02-22T14:59:19.325Z,99429.39
2019-02-22T15:01:51.357Z,99430.55
2019-02-22T15:04:25.869Z,99432.84
2019-02-22T15:06:56.267Z,99432.46
2019-02-22T15:09:27.526Z,99439.98
2019-02-22T15:11:56.854Z,99444.09
2019-02-22T15:14:31.470Z,99448.81
2019-02-22T15:17:04.429Z,99451.73
2019-02-22T15:19:35.808Z,99448.98
2019-02-22T15:22:09.363Z,99453.81
2019-02-22T15:24:40.735Z,99452.87
2019-02-22T15:27:11.134Z,99457.03
2019-02-22T15:29:41.584Z,99457.42
2019-02-22T15:32:12.882Z,99458.74
2019-02-22T15:34:44.309Z,99459.45
2019-02-22T15:37:15.166Z,99469.77
2019-02-22T15:39:46.458Z,99469.93
2019-02-22T15:42:17.805Z,99482.29
2019-02-22T15:44:48.711Z,99479.38
2019-02-22T15:47:20.078Z,99477.70
2019-02-22T15:49:50.165Z,99486.16
2019-02-22T15:52:20.858Z,99493.52
2019-02-22T15:54:50.731Z,99499.16
2019-02-22T15:57:22.060Z,99505.93
2019-02-22T15:59:56.333Z,99508.69
2019-02-22T16:02:25.863Z,99509.00
2019-02-22T16:04:59.662Z,99507.31
2019-02-22T16:07:29.566Z,99508.34
2019-02-22T16:10:00.489Z,99512.89
2019-02-22T16:12:31.313Z,99516.52
2019-02-22T16:15:03.792Z,99517.49
2019-02-22T16:17:33.490Z,99515.84
2019-02-22T16:20:04.269Z,99513.83
2019-02-22T16:22:34.333Z,99518.66
2019-02-22T16:25:18.730Z,99525.27
2019-02-22T16:27:40.009Z,99523.16
2019-02-22T16:30:12.735Z,99530.55
2019-02-22T16:32:45.070Z,99533.64
2019-02-22T16:35:16.527Z,99534.77
2019-02-22T16:37:46.593Z,99545.10
2019-02-22T16:40:16.235Z,99541.58
2019-02-22T16:42:46.898Z,99543.84
2019-02-22T16:45:17.218Z,99546.82
2019-02-22T16:47:47.077Z,99554.55
2019-02-22T16:50:15.347Z,99554.14
2019-02-22T16:52:46.125Z,99557.51
2019-02-22T16:55:16.640Z,99565.25
2019-02-22T16:57:48.293Z,99565.25
2019-02-22T17:00:20.045Z,99569.17
2019-02-22T17:02:52.947Z,99574.97
2019-02-22T17:05:24.243Z,99579.35
2019-02-22T17:07:55.558Z,99581.01
2019-02-22T17:10:26.165Z,99590.23
2019-02-22T17:12:58.572Z,99590.63
2019-02-22T17:15:28.959Z,99599.04
2019-02-22T17:18:00.302Z,99606.06
2019-02-22T17:20:32.472Z,99616.10
2019-02-22T17:23:07.919Z,99614.74
2019-02-22T17:25:40.755Z,99611.76
2019-02-22T17:28:14.225Z,99622.23
2019-02-22T17:30:43.837Z,99626.63
2019-02-22T17:33:20.460Z,99627.37
2019-02-22T17:35:50.883Z,99629.69
2019-02-22T17:38:20.522Z,99632.34
2019-02-22T17:40:51.276Z,99639.42
2019-02-22T17:43:21.939Z,99648.83
2019-02-22T17:45:52.365Z,99642.77
2019-02-22T17:48:23.726Z,99655.53
2019-02-22T17:50:53.906Z,99655.25
2019-02-22T17:53:22.980Z,99658.68
2019-02-22T17:55:53.393Z,99663.66
2019-02-22T17:58:24.856Z,99666.72
2019-02-22T18:00:54.049Z,99677.38
2019-02-22T18:03:24.454Z,99678.75
2019-02-22T18:05:55.213Z,99676.06
2019-02-22T18:08:26.089Z,99678.93
2019-02-22T18:10:56.160Z,99676.52
2019-02-22T18:13:27.518Z,99687.63
2019-02-22T18:15:58.260Z,99690.39
2019-02-22T18:18:30.985Z,99691.52
2019-02-22T18:21:02.384Z,99690.44
2019-02-22T18:23:33.164Z,99700.11
2019-02-22T18:26:02.836Z,99704.77
2019-02-22T18:28:36.187Z,99705.87
2019-02-22T18:31:06.172Z,99707.20
2019-02-22T18:33:38.146Z,99709.73
2019-02-22T18:36:07.777Z,99709.52
2019-02-22T18:38:37.870Z,99718.33
2019-02-22T18:41:07.349Z,99716.16
2019-02-22T18:43:38.193Z,99716.98
2019-02-22T18:46:08.005Z,99726.10
2019-02-22T18:48:37.089Z,99736.59
2019-02-22T18:51:05.668Z,99737.16
2019-02-22T18:53:36.978Z,99744.03
2019-02-22T18:56:08.261Z,99740.19
2019-02-22T18:58:39.121Z,99747.64
2019-02-22T19:01:09.230Z,99739.96
2019-02-22T19:03:39.823Z,99747.94
2019-02-22T19:06:10.114Z,99745.80
2019-02-22T19:08:39.780Z,99747.17
2019-02-22T19:11:09.797Z,99756.26
2019-02-22T19:13:39.644Z,99761.74
2019-02-22T19:16:10.955Z,99764.50
2019-02-22T19:18:42.445Z,99777.42
2019-02-22T19:21:13.841Z,99770.84
2019-02-22T19:23:44.018Z,99771.39
2019-02-22T19:26:15.798Z,99771.39
2019-02-22T19:28:47.075Z,99776.30
2019-02-22T19:31:16.680Z,99777.14
2019-02-22T19:33:49.763Z,99778.77
2019-02-22T19:36:20.016Z,99780.13
2019-02-22T19:38:49.680Z,99790.19
2019-02-22T19:41:21.078Z,99798.37
2019-02-22T19:43:52.290Z,99801.87
2019-02-22T19:46:23.571Z,99812.66
2019-02-22T19:48:53.995Z,99824.38
2019-02-22T19:51:24.086Z,99805.45
2019-02-22T19:53:56.852Z,99806.55
2019-02-22T19:56:27.495Z,99809.23
2019-02-22T19:58:59.311Z,99816.38
2019-02-22T20:01:30.169Z,99827.27
2019-02-22T20:04:01.200Z,99837.72
2019-02-22T20:06:32.070Z,99839.59
2019-02-22T20:09:01.666Z,99842.90
2019-02-22T20:11:31.542Z,99845.64
2019-02-22T20:14:01.549Z,99843.97
2019-02-22T20:16:31.984Z,99854.36
2019-02-22T20:19:05.732Z,99852.09
2019-02-22T20:21:39.232Z,99853.05
2019-02-22T20:24:09.045Z,99852.91
2019-02-22T20:26:41.052Z,99863.63
2019-02-22T20:29:12.401Z,99858.19
2019-02-22T20:31:41.514Z,99870.15
2019-02-22T20:34:12.110Z,99875.39
2019-02-22T20:36:44.075Z,99885.33
2019-02-22T20:39:15.052Z,99887.67
2019-02-22T20:41:45.066Z,99887.95
2019-02-22T20:44:15.871Z,99887.37
2019-02-22T20:46:46.546Z,99893.95
2019-02-22T20:49:15.619Z,99892.28
2019-02-22T20:51:46.988Z,99897.53
2019-02-22T20:54:19.606Z,99899.86
2019-02-22T20:56:50.902Z,99917.81
2019-02-22T20:59:21.490Z,99927.42
2019-02-22T21:01:51.396Z,99932.11
2019-02-22T21:04:21.832Z,99930.37
2019-02-22T21:06:52.175Z,99924.48
2019-02-22T21:09:23.603Z,99922.61
2019-02-22T21:11:54.994Z,99921.50
2019-02-22T21:14:24.845Z,99929.36
2019-02-22T21:16:54.382Z,99938.34
2019-02-22T21:19:25.709Z,99935.56
2019-02-22T21:21:56.180Z,99940.83
2019-02-22T21:24:27.503Z,99936.55
2019-02-22T21:26:57.938Z,99945.64
2019-02-22T21:29:27.586Z,99945.48
2019-02-22T21:31:58.355Z,99955.30
2019-02-22T21:34:28.770Z,99947.78
2019-02-22T21:37:00.338Z,99947.69
2019-02-22T21:39:32.490Z,99958.42
2019-02-22T21:42:03.856Z,99956.27
2019-02-22T21:44:33.834Z,99960.53
2019-02-22T21:47:04.481Z,99970.28
2019-02-22T21:49:35.078Z,99978.73
2019-02-22T21:52:05.873Z,99978.99
2019-02-22T21:54:35.687Z,99985.59
2019-02-22T21:57:06.451Z,99981.94
2019-02-22T21:59:37.650Z,99992.17
2019-02-22T22:02:06.724Z,99985.59
2019-02-22T22:04:38.131Z,99984.42
2019-02-22T22:07:07.778Z,99984.98
2019-02-22T22:09:39.045Z,99992.89
2019-02-22T22:12:09.726Z,99995.61
2019-02-22T22:14:42.928Z,99990.47
2019-02-22T22:17:13.710Z,99995.92
2019-02-22T22:19:44.462Z,99998.00
2019-02-22T22:22:17.460Z,99973.20
2019-02-22T22:24:48.892Z,99995.86
2019-02-22T22:27:19.604Z,99998.24
2019-02-22T22:29:50.952Z,100003.14
2019-02-22T22:32:21.748Z,100007.36
2019-02-22T22:34:52.235Z,100008.47
2019-02-22T22:37:20.530Z,100002.63
2019-02-22T22:39:51.769Z,100000.83
2019-02-22T22:42:22.482Z,100004.49
2019-02-22T22:44:52.340Z,100003.70
2019-02-22T22:47:23.694Z,99999.98
2019-02-22T22:49:54.130Z,100005.16
2019-02-22T22:52:26.287Z,100014.02
2019-02-22T22:54:56.672Z,100013.36
2019-02-22T22:57:27.175Z,100016.42
2019-02-22T22:59:58.513Z,100017.69
